sensor_id;sensor_type;location;lat;lon;timestamp;pressure;altitude;pressure_sealevel;temperature;humidity
71621;BME280;59471;42.254;23.102;2022-12-24T00:02:11;95948.38;;;-1.21;88.04
71621;BME280;59471;42.254;23.102;2022-12-24T00:04:37;95949.00;;;-1.30;88.58
71621;BME280;59471;42.254;23.102;2022-12-24T00:07:03;95951.47;;;-1.15;88.29
71621;BME280;59471;42.254;23.102;2022-12-24T00:09:28;95948.38;;;-1.08;87.74
71621;BME280;59471;42.254;23.102;2022-12-24T00:11:54;95955.19;;;-1.32;88.70
71621;BME280;59471;42.254;23.102;2022-12-24T00:14:19;95960.09;;;-1.42;88.41
71621;BME280;59471;42.254;23.102;2022-12-24T00:16:45;95949.41;;;-1.23;88.65
71621;BME280;59471;42.254;23.102;2022-12-24T00:19:11;95941.81;;;-1.25;88.79
71621;BME280;59471;42.254;23.102;2022-12-24T00:21:37;95943.03;;;-1.05;87.47
71621;BME280;59471;42.254;23.102;2022-12-24T00:24:03;95938.09;;;-0.95;86.47
71621;BME280;59471;42.254;23.102;2022-12-24T00:26:30;95935.44;;;-1.06;86.38
71621;BME280;59471;42.254;23.102;2022-12-24T00:28:57;95939.97;;;-1.10;86.68
71621;BME280;59471;42.254;23.102;2022-12-24T00:31:23;95943.56;;;-1.12;86.16
71621;BME280;59471;42.254;23.102;2022-12-24T00:33:49;95941.94;;;-1.13;85.92
71621;BME280;59471;42.254;23.102;2022-12-24T00:36:15;95935.03;;;-1.13;85.82
71621;BME280;59471;42.254;23.102;2022-12-24T00:38:41;95932.16;;;-1.34;86.11
71621;BME280;59471;42.254;23.102;2022-12-24T00:41:08;95932.56;;;-1.14;86.37
71621;BME280;59471;42.254;23.102;2022-12-24T00:43:54;95939.03;;;-1.09;85.51
71621;BME280;59471;42.254;23.102;2022-12-24T00:46:22;95934.22;;;-1.13;85.54
71621;BME280;59471;42.254;23.102;2022-12-24T00:48:49;95920.66;;;-1.41;86.25
71621;BME280;59471;42.254;23.102;2022-12-24T00:51:15;95924.66;;;-1.37;86.48
71621;BME280;59471;42.254;23.102;2022-12-24T00:53:41;95932.69;;;-1.29;86.20
71621;BME280;59471;42.254;23.102;2022-12-24T00:56:07;95928.66;;;-1.33;85.76
71621;BME280;59471;42.254;23.102;2022-12-24T00:58:33;95924.97;;;-1.29;86.33
71621;BME280;59471;42.254;23.102;2022-12-24T01:00:59;95926.41;;;-1.25;86.01
71621;BME280;59471;42.254;23.102;2022-12-24T01:03:24;95921.06;;;-1.22;85.83
71621;BME280;59471;42.254;23.102;2022-12-24T01:06:06;95920.25;;;-1.35;86.82
71621;BME280;59471;42.254;23.102;2022-12-24T01:08:34;95911.59;;;-1.34;86.29
71621;BME280;59471;42.254;23.102;2022-12-24T01:11:02;95922.69;;;-1.46;86.70
71621;BME280;59471;42.254;23.102;2022-12-24T01:13:29;95915.50;;;-1.67;86.82
71621;BME280;59471;42.254;23.102;2022-12-24T01:15:54;95918.88;;;-1.53;86.76
71621;BME280;59471;42.254;23.102;2022-12-24T01:18:20;95921.66;;;-1.31;86.15
71621;BME280;59471;42.254;23.102;2022-12-24T01:20:59;95919.22;;;-1.32;85.41
71621;BME280;59471;42.254;23.102;2022-12-24T01:23:27;95925.66;;;-1.27;85.25
71621;BME280;59471;42.254;23.102;2022-12-24T01:25:54;95935.44;;;-1.45;85.47
71621;BME280;59471;42.254;23.102;2022-12-24T01:28:20;95928.75;;;-1.47;85.81
71621;BME280;59471;42.254;23.102;2022-12-24T01:30:47;95914.97;;;-1.46;85.08
71621;BME280;59471;42.254;23.102;2022-12-24T01:33:13;95921.66;;;-1.56;85.06
71621;BME280;59471;42.254;23.102;2022-12-24T01:35:40;95926.00;;;-1.44;84.90
71621;BME280;59471;42.254;23.102;2022-12-24T01:38:07;95924.75;;;-1.51;84.86
71621;BME280;59471;42.254;23.102;2022-12-24T01:40:33;95939.13;;;-1.49;84.86
71621;BME280;59471;42.254;23.102;2022-12-24T01:43:19;95947.34;;;-1.56;84.82
71621;BME280;59471;42.254;23.102;2022-12-24T01:45:54;95939.72;;;-1.58;84.84
71621;BME280;59471;42.254;23.102;2022-12-24T01:51:14;95947.22;;;-2.07;85.96
71621;BME280;59471;42.254;23.102;2022-12-24T01:54:04;95945.94;;;-2.15;86.13
71621;BME280;59471;42.254;23.102;2022-12-24T01:56:34;95950.41;;;-2.04;86.49
71621;BME280;59471;42.254;23.102;2022-12-24T01:59:07;95938.75;;;-1.95;86.78
71621;BME280;59471;42.254;23.102;2022-12-24T02:01:35;95942.44;;;-2.26;87.35
71621;BME280;59471;42.254;23.102;2022-12-24T02:04:12;95944.25;;;-2.28;88.32
71621;BME280;59471;42.254;23.102;2022-12-24T02:06:46;95944.50;;;-2.19;87.15
71621;BME280;59471;42.254;23.102;2022-12-24T02:09:12;95934.63;;;-2.25;87.89
71621;BME280;59471;42.254;23.102;2022-12-24T02:11:38;95927.75;;;-1.97;87.55
71621;BME280;59471;42.254;23.102;2022-12-24T02:14:08;95923.66;;;-1.87;88.66
71621;BME280;59471;42.254;23.102;2022-12-24T02:16:46;95935.63;;;-1.60;88.22
71621;BME280;59471;42.254;23.102;2022-12-24T02:22:42;95924.06;;;-1.80;87.22
71621;BME280;59471;42.254;23.102;2022-12-24T02:25:50;95931.28;;;-1.73;86.25
71621;BME280;59471;42.254;23.102;2022-12-24T02:31:02;95929.69;;;-2.28;86.89
71621;BME280;59471;42.254;23.102;2022-12-24T02:33:41;95924.81;;;-2.05;86.85
71621;BME280;59471;42.254;23.102;2022-12-24T02:39:10;95937.91;;;-1.83;85.51
71621;BME280;59471;42.254;23.102;2022-12-24T02:41:41;95929.63;;;-1.74;84.94
71621;BME280;59471;42.254;23.102;2022-12-24T02:44:31;95924.44;;;-1.99;84.98
71621;BME280;59471;42.254;23.102;2022-12-24T02:47:10;95913.28;;;-1.98;85.26
71621;BME280;59471;42.254;23.102;2022-12-24T02:49:36;95928.28;;;-2.19;86.84
71621;BME280;59471;42.254;23.102;2022-12-24T02:52:02;95915.34;;;-2.18;86.50
71621;BME280;59471;42.254;23.102;2022-12-24T02:54:28;95915.09;;;-2.00;85.99
71621;BME280;59471;42.254;23.102;2022-12-24T02:57:16;95922.03;;;-1.88;84.82
71621;BME280;59471;42.254;23.102;2022-12-24T02:59:58;95924.47;;;-1.87;84.23
71621;BME280;59471;42.254;23.102;2022-12-24T03:05:40;95912.22;;;-2.36;84.63
71621;BME280;59471;42.254;23.102;2022-12-24T03:10:59;95905.47;;;-2.24;85.20
71621;BME280;59471;42.254;23.102;2022-12-24T03:13:29;95893.00;;;-2.16;86.21
71621;BME280;59471;42.254;23.102;2022-12-24T03:15:54;95895.91;;;-2.07;84.90
71621;BME280;59471;42.254;23.102;2022-12-24T03:18:23;95899.25;;;-2.20;84.99
71621;BME280;59471;42.254;23.102;2022-12-24T03:20:59;95901.28;;;-2.25;84.87
71621;BME280;59471;42.254;23.102;2022-12-24T03:23:28;95885.38;;;-2.30;85.38
71621;BME280;59471;42.254;23.102;2022-12-24T03:25:54;95884.13;;;-2.24;85.00
71621;BME280;59471;42.254;23.102;2022-12-24T03:28:23;95878.69;;;-2.33;85.07
71621;BME280;59471;42.254;23.102;2022-12-24T03:30:51;95878.47;;;-2.57;86.07
71621;BME280;59471;42.254;23.102;2022-12-24T03:33:17;95877.09;;;-2.48;85.85
71621;BME280;59471;42.254;23.102;2022-12-24T03:35:43;95871.81;;;-2.32;85.28
71621;BME280;59471;42.254;23.102;2022-12-24T03:38:09;95865.44;;;-2.39;85.42
71621;BME280;59471;42.254;23.102;2022-12-24T03:40:34;95869.91;;;-2.43;85.41
71621;BME280;59471;42.254;23.102;2022-12-24T03:43:00;95870.25;;;-2.35;85.27
71621;BME280;59471;42.254;23.102;2022-12-24T03:45:25;95877.25;;;-2.24;84.42
71621;BME280;59471;42.254;23.102;2022-12-24T03:47:51;95873.25;;;-2.28;84.18
71621;BME280;59471;42.254;23.102;2022-12-24T03:50:16;95876.31;;;-2.36;84.39
71621;BME280;59471;42.254;23.102;2022-12-24T03:52:42;95870.56;;;-2.39;84.84
71621;BME280;59471;42.254;23.102;2022-12-24T03:55:08;95872.22;;;-2.52;84.70
71621;BME280;59471;42.254;23.102;2022-12-24T03:57:33;95878.66;;;-2.60;85.15
71621;BME280;59471;42.254;23.102;2022-12-24T03:59:59;95872.09;;;-2.64;85.18
71621;BME280;59471;42.254;23.102;2022-12-24T04:02:25;95867.44;;;-2.44;84.77
71621;BME280;59471;42.254;23.102;2022-12-24T04:04:50;95871.00;;;-2.33;84.95
71621;BME280;59471;42.254;23.102;2022-12-24T04:07:16;95872.00;;;-2.35;84.58
71621;BME280;59471;42.254;23.102;2022-12-24T04:09:41;95887.22;;;-2.46;85.14
71621;BME280;59471;42.254;23.102;2022-12-24T04:12:07;95880.81;;;-2.39;85.47
71621;BME280;59471;42.254;23.102;2022-12-24T04:14:33;95885.34;;;-2.57;85.02
71621;BME280;59471;42.254;23.102;2022-12-24T04:16:58;95892.91;;;-2.41;85.05
71621;BME280;59471;42.254;23.102;2022-12-24T04:19:24;95885.97;;;-2.53;84.99
71621;BME280;59471;42.254;23.102;2022-12-24T04:21:49;95900.94;;;-2.33;84.08
71621;BME280;59471;42.254;23.102;2022-12-24T04:24:15;95894.34;;;-2.37;84.17
71621;BME280;59471;42.254;23.102;2022-12-24T04:26:40;95909.53;;;-2.34;84.28
71621;BME280;59471;42.254;23.102;2022-12-24T04:29:06;95911.78;;;-2.42;84.29
71621;BME280;59471;42.254;23.102;2022-12-24T04:31:31;95922.75;;;-2.40;84.24
71621;BME280;59471;42.254;23.102;2022-12-24T04:33:57;95924.63;;;-2.57;84.36
71621;BME280;59471;42.254;23.102;2022-12-24T04:36:23;95926.13;;;-2.40;84.22
71621;BME280;59471;42.254;23.102;2022-12-24T04:38:48;95956.84;;;-2.38;83.89
71621;BME280;59471;42.254;23.102;2022-12-24T04:41:22;95965.16;;;-2.35;84.31
71621;BME280;59471;42.254;23.102;2022-12-24T04:43:48;95969.84;;;-2.41;84.26
71621;BME280;59471;42.254;23.102;2022-12-24T04:46:20;95960.19;;;-2.65;85.29
71621;BME280;59471;42.254;23.102;2022-12-24T04:48:50;95970.84;;;-2.99;88.23
71621;BME280;59471;42.254;23.102;2022-12-24T04:51:18;95954.16;;;-2.92;88.49
71621;BME280;59471;42.254;23.102;2022-12-24T04:53:44;95961.13;;;-2.94;89.47
71621;BME280;59471;42.254;23.102;2022-12-24T04:56:18;95960.38;;;-2.96;91.10
71621;BME280;59471;42.254;23.102;2022-12-24T04:58:46;95958.75;;;-2.83;91.38
71621;BME280;59471;42.254;23.102;2022-12-24T05:01:17;95964.59;;;-2.67;91.07
71621;BME280;59471;42.254;23.102;2022-12-24T05:03:44;95955.97;;;-2.66;91.97
71621;BME280;59471;42.254;23.102;2022-12-24T05:06:12;95935.97;;;-2.46;90.73
71621;BME280;59471;42.254;23.102;2022-12-24T05:08:39;95928.63;;;-2.52;89.05
71621;BME280;59471;42.254;23.102;2022-12-24T05:11:05;95923.84;;;-2.30;88.86
71621;BME280;59471;42.254;23.102;2022-12-24T05:13:31;95911.22;;;-2.33;88.48
71621;BME280;59471;42.254;23.102;2022-12-24T05:15:57;95916.19;;;-2.59;91.06
71621;BME280;59471;42.254;23.102;2022-12-24T05:18:23;95912.84;;;-2.32;90.81
71621;BME280;59471;42.254;23.102;2022-12-24T05:20:49;95904.88;;;-2.15;89.18
71621;BME280;59471;42.254;23.102;2022-12-24T05:26:02;95903.13;;;-2.27;87.84
71621;BME280;59471;42.254;23.102;2022-12-24T05:28:50;95909.16;;;-2.28;86.66
71621;BME280;59471;42.254;23.102;2022-12-24T05:31:18;95916.78;;;-2.26;86.79
71621;BME280;59471;42.254;23.102;2022-12-24T05:33:44;95930.31;;;-2.24;86.65
71621;BME280;59471;42.254;23.102;2022-12-24T05:36:10;95926.97;;;-2.39;86.81
71621;BME280;59471;42.254;23.102;2022-12-24T05:38:36;95931.13;;;-2.24;86.56
71621;BME280;59471;42.254;23.102;2022-12-24T05:41:01;95934.81;;;-2.28;86.62
71621;BME280;59471;42.254;23.102;2022-12-24T05:43:27;95923.97;;;-2.19;86.30
71621;BME280;59471;42.254;23.102;2022-12-24T05:46:00;95926.53;;;-2.19;87.85
71621;BME280;59471;42.254;23.102;2022-12-24T05:48:27;95929.97;;;-2.05;88.11
71621;BME280;59471;42.254;23.102;2022-12-24T05:50:53;95933.47;;;-2.06;89.71
71621;BME280;59471;42.254;23.102;2022-12-24T05:53:19;95927.94;;;-2.00;89.53
71621;BME280;59471;42.254;23.102;2022-12-24T05:55:45;95922.81;;;-2.00;90.70
71621;BME280;59471;42.254;23.102;2022-12-24T05:58:11;95930.88;;;-1.79;90.42
71621;BME280;59471;42.254;23.102;2022-12-24T06:00:37;95935.03;;;-1.91;91.46
71621;BME280;59471;42.254;23.102;2022-12-24T06:03:02;95937.69;;;-1.93;91.41
71621;BME280;59471;42.254;23.102;2022-12-24T06:05:28;95926.63;;;-1.93;91.11
71621;BME280;59471;42.254;23.102;2022-12-24T06:07:54;95930.84;;;-1.92;91.43
71621;BME280;59471;42.254;23.102;2022-12-24T06:10:19;95944.34;;;-2.03;91.58
71621;BME280;59471;42.254;23.102;2022-12-24T06:12:45;95947.69;;;-2.15;93.50
71621;BME280;59471;42.254;23.102;2022-12-24T06:15:11;95953.25;;;-1.81;92.17
71621;BME280;59471;42.254;23.102;2022-12-24T06:17:36;95954.53;;;-1.49;91.09
71621;BME280;59471;42.254;23.102;2022-12-24T06:20:02;95964.97;;;-1.65;90.05
71621;BME280;59471;42.254;23.102;2022-12-24T06:22:28;95958.38;;;-1.81;90.56
71621;BME280;59471;42.254;23.102;2022-12-24T06:24:54;95947.75;;;-1.63;90.12
71621;BME280;59471;42.254;23.102;2022-12-24T06:27:19;95943.03;;;-1.30;88.74
71621;BME280;59471;42.254;23.102;2022-12-24T06:29:45;95942.03;;;-1.28;88.46
71621;BME280;59471;42.254;23.102;2022-12-24T06:32:10;95945.38;;;-1.53;89.77
71621;BME280;59471;42.254;23.102;2022-12-24T06:34:36;95942.84;;;-1.40;90.09
71621;BME280;59471;42.254;23.102;2022-12-24T06:37:01;95940.09;;;-1.77;90.78
71621;BME280;59471;42.254;23.102;2022-12-24T06:39:27;95938.75;;;-2.22;93.14
71621;BME280;59471;42.254;23.102;2022-12-24T06:41:53;95933.91;;;-2.27;93.78
71621;BME280;59471;42.254;23.102;2022-12-24T06:44:18;95932.94;;;-2.39;94.71
71621;BME280;59471;42.254;23.102;2022-12-24T06:46:44;95943.53;;;-2.03;96.51
71621;BME280;59471;42.254;23.102;2022-12-24T06:49:09;95947.03;;;-2.04;94.45
71621;BME280;59471;42.254;23.102;2022-12-24T06:51:35;95964.41;;;-1.95;93.84
71621;BME280;59471;42.254;23.102;2022-12-24T06:54:00;95964.19;;;-1.52;92.87
71621;BME280;59471;42.254;23.102;2022-12-24T06:56:26;95957.13;;;-1.23;91.88
71621;BME280;59471;42.254;23.102;2022-12-24T06:58:52;95958.97;;;-0.87;90.87
71621;BME280;59471;42.254;23.102;2022-12-24T07:01:18;95955.06;;;-1.05;90.76
71621;BME280;59471;42.254;23.102;2022-12-24T07:03:45;95962.56;;;-1.02;90.57
71621;BME280;59471;42.254;23.102;2022-12-24T07:06:28;95979.03;;;-1.05;91.48
71621;BME280;59471;42.254;23.102;2022-12-24T07:08:55;95962.38;;;-0.99;91.08
71621;BME280;59471;42.254;23.102;2022-12-24T07:11:22;95966.06;;;-0.78;89.49
71621;BME280;59471;42.254;23.102;2022-12-24T07:13:48;95975.75;;;-0.94;90.28
71621;BME280;59471;42.254;23.102;2022-12-24T07:16:14;95966.78;;;-1.01;90.42
71621;BME280;59471;42.254;23.102;2022-12-24T07:18:39;95966.28;;;-0.81;89.79
71621;BME280;59471;42.254;23.102;2022-12-24T07:21:05;95983.03;;;-0.62;89.24
71621;BME280;59471;42.254;23.102;2022-12-24T07:23:32;95979.44;;;-0.36;88.98
71621;BME280;59471;42.254;23.102;2022-12-24T07:26:02;95969.47;;;-0.28;89.32
71621;BME280;59471;42.254;23.102;2022-12-24T07:28:29;95972.28;;;-0.19;88.20
71621;BME280;59471;42.254;23.102;2022-12-24T07:30:56;95978.91;;;-0.15;88.59
71621;BME280;59471;42.254;23.102;2022-12-24T07:33:23;95980.09;;;-0.08;88.25
71621;BME280;59471;42.254;23.102;2022-12-24T07:36:06;95977.56;;;0.03;88.24
71621;BME280;59471;42.254;23.102;2022-12-24T07:38:33;95971.97;;;0.09;87.70
71621;BME280;59471;42.254;23.102;2022-12-24T07:40:59;95970.34;;;0.08;87.44
71621;BME280;59471;42.254;23.102;2022-12-24T07:43:25;95971.50;;;0.04;87.79
71621;BME280;59471;42.254;23.102;2022-12-24T07:45:56;95972.41;;;0.03;87.74
71621;BME280;59471;42.254;23.102;2022-12-24T07:48:22;95974.41;;;0.23;86.97
71621;BME280;59471;42.254;23.102;2022-12-24T07:50:49;95972.56;;;0.37;85.60
71621;BME280;59471;42.254;23.102;2022-12-24T07:53:15;95967.47;;;0.13;87.47
71621;BME280;59471;42.254;23.102;2022-12-24T07:55:40;95967.19;;;0.29;87.06
71621;BME280;59471;42.254;23.102;2022-12-24T07:58:06;95977.50;;;0.40;88.59
71621;BME280;59471;42.254;23.102;2022-12-24T08:00:31;95979.84;;;0.32;89.46
71621;BME280;59471;42.254;23.102;2022-12-24T08:02:57;95988.16;;;0.35;89.34
71621;BME280;59471;42.254;23.102;2022-12-24T08:05:25;95995.22;;;0.20;89.53
71621;BME280;59471;42.254;23.102;2022-12-24T08:07:51;95996.03;;;0.21;89.41
71621;BME280;59471;42.254;23.102;2022-12-24T08:10:17;95993.56;;;0.43;88.98
71621;BME280;59471;42.254;23.102;2022-12-24T08:12:42;96001.81;;;0.60;89.18
71621;BME280;59471;42.254;23.102;2022-12-24T08:15:10;95992.28;;;0.73;88.93
71621;BME280;59471;42.254;23.102;2022-12-24T08:17:35;95985.91;;;0.66;88.96
71621;BME280;59471;42.254;23.102;2022-12-24T08:20:02;95989.59;;;0.86;88.24
71621;BME280;59471;42.254;23.102;2022-12-24T08:22:29;95987.69;;;0.77;87.68
71621;BME280;59471;42.254;23.102;2022-12-24T08:24:54;95985.09;;;0.65;88.59
71621;BME280;59471;42.254;23.102;2022-12-24T08:27:20;95984.53;;;0.84;87.97
71621;BME280;59471;42.254;23.102;2022-12-24T08:29:45;95976.97;;;1.05;87.10
71621;BME280;59471;42.254;23.102;2022-12-24T08:32:11;95952.00;;;1.06;87.60
71621;BME280;59471;42.254;23.102;2022-12-24T08:34:37;95953.97;;;1.13;88.34
71621;BME280;59471;42.254;23.102;2022-12-24T08:37:02;95954.91;;;0.90;89.57
71621;BME280;59471;42.254;23.102;2022-12-24T08:39:28;95963.34;;;0.81;90.65
71621;BME280;59471;42.254;23.102;2022-12-24T08:41:53;95961.69;;;0.91;90.73
71621;BME280;59471;42.254;23.102;2022-12-24T08:44:19;95955.19;;;1.21;89.79
71621;BME280;59471;42.254;23.102;2022-12-24T08:46:44;95940.38;;;1.23;88.37
71621;BME280;59471;42.254;23.102;2022-12-24T08:49:10;95937.06;;;1.54;88.59
71621;BME280;59471;42.254;23.102;2022-12-24T08:51:36;95949.09;;;1.10;89.89
71621;BME280;59471;42.254;23.102;2022-12-24T08:54:01;95950.13;;;1.08;90.69
71621;BME280;59471;42.254;23.102;2022-12-24T08:56:27;95964.34;;;1.36;90.29
71621;BME280;59471;42.254;23.102;2022-12-24T08:58:52;95955.75;;;1.58;88.90
71621;BME280;59471;42.254;23.102;2022-12-24T09:01:19;95959.63;;;1.41;89.23
71621;BME280;59471;42.254;23.102;2022-12-24T09:03:45;95953.19;;;1.58;88.28
71621;BME280;59471;42.254;23.102;2022-12-24T09:06:12;95936.97;;;1.67;87.71
71621;BME280;59471;42.254;23.102;2022-12-24T09:08:38;95938.06;;;1.97;88.34
71621;BME280;59471;42.254;23.102;2022-12-24T09:11:07;95942.59;;;2.04;88.30
71621;BME280;59471;42.254;23.102;2022-12-24T09:13:34;95936.97;;;1.45;91.35
71621;BME280;59471;42.254;23.102;2022-12-24T09:16:00;95951.84;;;1.75;91.13
71621;BME280;59471;42.254;23.102;2022-12-24T09:18:26;95947.88;;;1.59;90.79
71621;BME280;59471;42.254;23.102;2022-12-24T09:21:04;95941.03;;;1.70;91.31
71621;BME280;59471;42.254;23.102;2022-12-24T09:23:31;95945.44;;;1.47;91.29
71621;BME280;59471;42.254;23.102;2022-12-24T09:25:59;95946.09;;;1.60;91.34
71621;BME280;59471;42.254;23.102;2022-12-24T09:28:25;95958.16;;;1.93;89.39
71621;BME280;59471;42.254;23.102;2022-12-24T09:31:01;95966.00;;;1.92;89.40
71621;BME280;59471;42.254;23.102;2022-12-24T09:33:29;95960.44;;;2.07;88.76
71621;BME280;59471;42.254;23.102;2022-12-24T09:35:57;95950.66;;;2.22;88.80
71621;BME280;59471;42.254;23.102;2022-12-24T09:38:23;95953.88;;;2.03;89.38
71621;BME280;59471;42.254;23.102;2022-12-24T09:40:49;95960.03;;;2.23;89.17
71621;BME280;59471;42.254;23.102;2022-12-24T09:43:21;95958.25;;;2.35;88.52
71621;BME280;59471;42.254;23.102;2022-12-24T09:46:16;95950.56;;;2.45;87.50
71621;BME280;59471;42.254;23.102;2022-12-24T09:48:51;95961.72;;;2.45;87.81
71621;BME280;59471;42.254;23.102;2022-12-24T09:54:12;95941.66;;;2.38;89.56
71621;BME280;59471;42.254;23.102;2022-12-24T09:56:43;95934.69;;;2.49;89.01
71621;BME280;59471;42.254;23.102;2022-12-24T09:59:13;95935.88;;;2.66;88.37
71621;BME280;59471;42.254;23.102;2022-12-24T10:01:48;95940.59;;;2.40;88.66
71621;BME280;59471;42.254;23.102;2022-12-24T10:04:18;95939.88;;;2.49;89.15
71621;BME280;59471;42.254;23.102;2022-12-24T10:07:10;95935.69;;;2.79;87.98
71621;BME280;59471;42.254;23.102;2022-12-24T10:10:27;95926.00;;;3.02;88.05
71621;BME280;59471;42.254;23.102;2022-12-24T10:13:17;95925.09;;;2.82;88.51
71621;BME280;59471;42.254;23.102;2022-12-24T10:22:34;95929.69;;;3.30;86.74
71621;BME280;59471;42.254;23.102;2022-12-24T10:24:58;95920.41;;;3.68;85.92
71621;BME280;59471;42.254;23.102;2022-12-24T10:27:34;95910.22;;;3.95;84.69
71621;BME280;59471;42.254;23.102;2022-12-24T10:30:12;95913.09;;;4.12;84.24
71621;BME280;59471;42.254;23.102;2022-12-24T10:32:40;95916.66;;;4.11;84.06
71621;BME280;59471;42.254;23.102;2022-12-24T10:37:46;95900.00;;;4.23;84.22
71621;BME280;59471;42.254;23.102;2022-12-24T10:40:18;95890.31;;;4.45;83.59
71621;BME280;59471;42.254;23.102;2022-12-24T10:42:45;95884.16;;;4.55;82.25
71621;BME280;59471;42.254;23.102;2022-12-24T10:45:16;95883.44;;;4.63;82.46
71621;BME280;59471;42.254;23.102;2022-12-24T10:47:48;95871.72;;;4.59;82.80
71621;BME280;59471;42.254;23.102;2022-12-24T10:50:28;95875.53;;;4.64;82.09
71621;BME280;59471;42.254;23.102;2022-12-24T10:53:04;95879.19;;;4.81;81.97
71621;BME280;59471;42.254;23.102;2022-12-24T10:55:36;95863.22;;;4.76;81.40
71621;BME280;59471;42.254;23.102;2022-12-24T10:58:04;95863.72;;;4.90;81.17
71621;BME280;59471;42.254;23.102;2022-12-24T11:00:31;95867.09;;;5.00;80.82
71621;BME280;59471;42.254;23.102;2022-12-24T11:05:39;95859.44;;;5.08;79.72
71621;BME280;59471;42.254;23.102;2022-12-24T11:10:40;95867.44;;;5.24;80.27
71621;BME280;59471;42.254;23.102;2022-12-24T11:16:11;95861.59;;;5.40;78.21
71621;BME280;59471;42.254;23.102;2022-12-24T11:18:46;95856.47;;;5.30;79.95
71621;BME280;59471;42.254;23.102;2022-12-24T11:21:22;95861.25;;;5.53;78.38
71621;BME280;59471;42.254;23.102;2022-12-24T11:26:38;95861.78;;;5.56;76.90
71621;BME280;59471;42.254;23.102;2022-12-24T11:29:15;95856.47;;;5.58;77.39
71621;BME280;59471;42.254;23.102;2022-12-24T11:31:45;95845.69;;;5.53;77.72
71621;BME280;59471;42.254;23.102;2022-12-24T11:34:30;95838.19;;;5.50;77.67
71621;BME280;59471;42.254;23.102;2022-12-24T11:37:09;95853.50;;;5.89;76.24
71621;BME280;59471;42.254;23.102;2022-12-24T11:39:44;95850.03;;;5.98;76.89
71621;BME280;59471;42.254;23.102;2022-12-24T11:42:32;95844.69;;;6.17;76.21
71621;BME280;59471;42.254;23.102;2022-12-24T11:45:06;95839.19;;;6.20;74.63
71621;BME280;59471;42.254;23.102;2022-12-24T11:47:43;95841.78;;;6.38;74.43
71621;BME280;59471;42.254;23.102;2022-12-24T11:52:56;95850.78;;;6.08;75.06
71621;BME280;59471;42.254;23.102;2022-12-24T11:55:45;95830.38;;;6.13;75.21
71621;BME280;59471;42.254;23.102;2022-12-24T11:58:21;95816.16;;;6.25;75.06
71621;BME280;59471;42.254;23.102;2022-12-24T12:04:08;95801.97;;;6.46;74.31
71621;BME280;59471;42.254;23.102;2022-12-24T12:09:28;95819.44;;;6.28;74.97
71621;BME280;59471;42.254;23.102;2022-12-24T12:12:18;95825.06;;;6.41;73.00
71621;BME280;59471;42.254;23.102;2022-12-24T12:15:05;95840.63;;;6.15;73.53
71621;BME280;59471;42.254;23.102;2022-12-24T12:20:34;95853.25;;;6.10;74.34
71621;BME280;59471;42.254;23.102;2022-12-24T12:25:56;95857.34;;;6.12;76.19
71621;BME280;59471;42.254;23.102;2022-12-24T12:28:43;95862.97;;;6.25;76.06
71621;BME280;59471;42.254;23.102;2022-12-24T12:31:14;95865.78;;;6.14;78.73
71621;BME280;59471;42.254;23.102;2022-12-24T12:36:36;95866.38;;;6.08;78.72
71621;BME280;59471;42.254;23.102;2022-12-24T12:39:08;95867.56;;;6.14;78.27
71621;BME280;59471;42.254;23.102;2022-12-24T12:41:56;95878.72;;;6.06;79.79
71621;BME280;59471;42.254;23.102;2022-12-24T12:47:53;95865.78;;;6.14;79.83
71621;BME280;59471;42.254;23.102;2022-12-24T12:57:02;95872.06;;;6.21;79.64
71621;BME280;59471;42.254;23.102;2022-12-24T12:59:39;95868.31;;;6.42;79.62
71621;BME280;59471;42.254;23.102;2022-12-24T13:11:53;95861.09;;;6.36;78.48
71621;BME280;59471;42.254;23.102;2022-12-24T13:20:48;95874.50;;;6.67;77.21
71621;BME280;59471;42.254;23.102;2022-12-24T13:23:19;95868.13;;;6.61;77.84
71621;BME280;59471;42.254;23.102;2022-12-24T13:25:49;95865.47;;;6.53;77.72
71621;BME280;59471;42.254;23.102;2022-12-24T13:30:51;95876.47;;;6.47;78.12
71621;BME280;59471;42.254;23.102;2022-12-24T13:36:15;95881.06;;;6.53;76.32
71621;BME280;59471;42.254;23.102;2022-12-24T13:38:54;95897.88;;;6.41;77.38
71621;BME280;59471;42.254;23.102;2022-12-24T13:46:56;95903.53;;;6.54;77.62
71621;BME280;59471;42.254;23.102;2022-12-24T13:54:38;95889.84;;;6.52;77.38
71621;BME280;59471;42.254;23.102;2022-12-24T14:00:39;95880.31;;;6.43;77.47
71621;BME280;59471;42.254;23.102;2022-12-24T14:05:49;95874.34;;;6.24;78.40
71621;BME280;59471;42.254;23.102;2022-12-24T14:19:20;95895.38;;;6.13;77.59
71621;BME280;59471;42.254;23.102;2022-12-24T14:22:17;95885.94;;;6.12;77.81
71621;BME280;59471;42.254;23.102;2022-12-24T14:25:16;95882.81;;;6.09;78.81
71621;BME280;59471;42.254;23.102;2022-12-24T14:27:48;95874.13;;;6.00;79.26
71621;BME280;59471;42.254;23.102;2022-12-24T14:30:19;95876.59;;;5.92;79.44
71621;BME280;59471;42.254;23.102;2022-12-24T14:32:53;95885.38;;;5.91;79.30
71621;BME280;59471;42.254;23.102;2022-12-24T14:35:27;95900.97;;;5.91;79.38
71621;BME280;59471;42.254;23.102;2022-12-24T14:38:07;95904.53;;;5.90;79.87
71621;BME280;59471;42.254;23.102;2022-12-24T14:40:49;95909.25;;;5.76;80.37
71621;BME280;59471;42.254;23.102;2022-12-24T14:52:29;95940.66;;;5.93;79.88
71621;BME280;59471;42.254;23.102;2022-12-24T14:54:59;95936.03;;;5.87;80.42
71621;BME280;59471;42.254;23.102;2022-12-24T14:58:35;95935.91;;;5.78;81.37
71621;BME280;59471;42.254;23.102;2022-12-24T15:01:17;95932.84;;;5.65;83.06
71621;BME280;59471;42.254;23.102;2022-12-24T15:03:45;95917.06;;;5.49;84.82
71621;BME280;59471;42.254;23.102;2022-12-24T15:06:42;95928.69;;;5.45;86.46
71621;BME280;59471;42.254;23.102;2022-12-24T15:09:29;95941.97;;;5.42;86.92
71621;BME280;59471;42.254;23.102;2022-12-24T15:11:57;95944.19;;;5.37;87.73
71621;BME280;59471;42.254;23.102;2022-12-24T15:14:26;95946.63;;;5.38;87.62
71621;BME280;59471;42.254;23.102;2022-12-24T15:17:02;95947.44;;;5.39;88.06
71621;BME280;59471;42.254;23.102;2022-12-24T15:22:08;95963.31;;;5.35;90.20
71621;BME280;59471;42.254;23.102;2022-12-24T15:24:44;95957.50;;;5.24;91.24